createdAt,value
2023-02-26T00:02:13.608Z,94076.94
2023-02-26T00:05:21.653Z,94073.41
2023-02-26T00:08:31.596Z,94073.34
2023-02-26T00:11:40.212Z,94077.53
2023-02-26T00:14:49.836Z,94081.31
2023-02-26T00:18:07.013Z,94090.47
2023-02-26T00:21:18.612Z,94083.94
2023-02-26T00:24:28.029Z,94088.63
2023-02-26T00:27:36.717Z,94087.22
2023-02-26T00:30:45.461Z,94086.41
2023-02-26T00:33:56.131Z,94093.09
2023-02-26T00:37:24.151Z,94090.88
2023-02-26T00:40:44.155Z,94103.78
2023-02-26T00:43:53.052Z,94101.16
2023-02-26T00:47:11.120Z,94099.44
2023-02-26T00:50:23.192Z,94106.00
2023-02-26T00:53:42.093Z,94107.50
2023-02-26T00:56:53.743Z,94111.31
2023-02-26T01:00:02.185Z,94114.06
2023-02-26T01:03:12.089Z,94113.41
2023-02-26T01:06:23.613Z,94103.47
2023-02-26T01:09:34.857Z,94106.53
2023-02-26T01:12:45.356Z,94099.25
2023-02-26T01:16:08.946Z,94115.06
2023-02-26T01:19:30.731Z,94111.47
2023-02-26T01:22:47.399Z,94107.13
2023-02-26T01:26:01.576Z,94107.56
2023-02-26T01:29:11.937Z,94105.63
2023-02-26T01:32:28.746Z,94110.13
2023-02-26T01:35:46.958Z,94104.00
2023-02-26T01:39:10.537Z,94105.66
2023-02-26T01:42:24.510Z,94115.81
2023-02-26T01:45:44.909Z,94113.47
2023-02-26T01:48:57.301Z,94111.63
2023-02-26T01:52:08.358Z,94112.94
2023-02-26T01:55:19.102Z,94112.34
2023-02-26T01:58:35.131Z,94113.84
2023-02-26T02:01:45.353Z,94119.41
2023-02-26T02:04:54.583Z,94119.75
2023-02-26T02:08:03.380Z,94125.56
2023-02-26T02:11:14.699Z,94127.94
2023-02-26T02:14:32.534Z,94126.00
2023-02-26T02:17:52.904Z,94128.41
2023-02-26T02:21:46.678Z,94131.47
2023-02-26T02:25:16.704Z,94136.81
2023-02-26T02:28:46.493Z,94140.38
2023-02-26T02:32:01.600Z,94138.47
2023-02-26T02:35:19.238Z,94138.00
2023-02-26T02:38:36.554Z,94143.75
2023-02-26T02:41:53.613Z,94142.94
2023-02-26T02:45:10.816Z,94144.72
2023-02-26T02:48:29.256Z,94151.88
2023-02-26T02:51:42.411Z,94153.28
2023-02-26T02:54:59.923Z,94151.50
2023-02-26T02:58:14.823Z,94152.25
2023-02-26T03:01:27.333Z,94150.28
2023-02-26T03:04:38.114Z,94152.25
2023-02-26T03:07:55.246Z,94154.53
2023-02-26T03:11:03.647Z,94160.50
2023-02-26T03:14:16.322Z,94162.75
2023-02-26T03:17:34.993Z,94163.88
2023-02-26T03:20:57.884Z,94162.81
2023-02-26T03:24:17.223Z,94172.09
2023-02-26T03:27:34.353Z,94177.31
2023-02-26T03:30:49.479Z,94179.09
2023-02-26T03:34:04.240Z,94182.41
2023-02-26T03:37:22.770Z,94192.34
2023-02-26T03:40:38.580Z,94192.63
2023-02-26T03:43:56.951Z,94193.31
2023-02-26T03:47:11.961Z,94189.91
2023-02-26T03:50:29.010Z,94199.25
2023-02-26T03:54:09.079Z,94197.34
2023-02-26T03:57:21.405Z,94200.09
2023-02-26T04:00:57.265Z,94206.44
2023-02-26T04:04:13.797Z,94205.19
2023-02-26T04:07:23.347Z,94210.69
2023-02-26T04:10:42.657Z,94214.81
2023-02-26T04:13:50.911Z,94213.16
2023-02-26T04:17:00.259Z,94209.47
2023-02-26T04:20:11.351Z,94217.69
2023-02-26T04:23:20.381Z,94222.03
2023-02-26T04:26:30.201Z,94222.28
2023-02-26T04:29:38.621Z,94224.00
2023-02-26T04:32:47.648Z,94225.91
2023-02-26T04:35:56.980Z,94226.03
2023-02-26T04:39:07.243Z,94227.53
2023-02-26T04:42:17.500Z,94224.38
2023-02-26T04:45:25.636Z,94236.31
2023-02-26T04:48:34.720Z,94235.31
2023-02-26T04:51:42.902Z,94243.00
2023-02-26T04:54:53.336Z,94249.31
2023-02-26T04:58:03.579Z,94260.38
2023-02-26T05:01:13.626Z,94265.38
2023-02-26T05:04:21.983Z,94273.59
2023-02-26T05:07:35.260Z,94282.78
2023-02-26T05:10:43.465Z,94277.84
2023-02-26T05:13:53.270Z,94280.19
2023-02-26T05:17:01.459Z,94280.34
2023-02-26T05:20:12.942Z,94289.00
2023-02-26T05:23:21.300Z,94285.72
2023-02-26T05:26:29.478Z,94288.63
2023-02-26T05:29:41.124Z,94296.59
2023-02-26T05:32:51.204Z,94296.88
2023-02-26T05:35:59.316Z,94288.25
2023-02-26T05:39:07.760Z,94287.28
2023-02-26T05:42:15.958Z,94289.59
2023-02-26T05:45:25.444Z,94300.97
2023-02-26T05:48:33.577Z,94307.00
2023-02-26T05:51:42.813Z,94318.38
2023-02-26T05:54:51.072Z,94317.03
2023-02-26T05:57:59.281Z,94337.63
2023-02-26T06:01:08.712Z,94335.00
2023-02-26T06:04:16.891Z,94342.31
2023-02-26T06:07:25.481Z,94333.94
2023-02-26T06:10:34.041Z,94340.81
2023-02-26T06:13:42.610Z,94341.63
2023-02-26T06:16:52.055Z,94347.78
2023-02-26T06:20:00.201Z,94348.56
2023-02-26T06:23:08.313Z,94345.19
2023-02-26T06:26:16.592Z,94358.31
2023-02-26T06:29:24.767Z,94358.72
2023-02-26T06:32:34.366Z,94375.56
2023-02-26T06:35:42.771Z,94372.84
2023-02-26T06:38:50.887Z,94372.91
2023-02-26T06:41:59.843Z,94381.66
2023-02-26T06:45:09.330Z,94387.28
2023-02-26T06:48:18.784Z,94391.34
2023-02-26T06:51:27.153Z,94405.88
2023-02-26T06:54:35.300Z,94396.50
2023-02-26T06:57:43.561Z,94404.13
2023-02-26T07:00:52.101Z,94406.28
2023-02-26T07:04:01.645Z,94411.16
2023-02-26T07:07:09.869Z,94409.66
2023-02-26T07:10:18.713Z,94420.97
2023-02-26T07:13:26.792Z,94421.03
2023-02-26T07:16:35.078Z,94420.09
2023-02-26T07:19:44.547Z,94427.16
2023-02-26T07:22:52.666Z,94436.06
2023-02-26T07:26:01.052Z,94438.50
2023-02-26T07:29:09.465Z,94451.44
2023-02-26T07:32:17.776Z,94452.53
2023-02-26T07:35:27.436Z,94462.56
2023-02-26T07:38:35.545Z,94459.66
2023-02-26T07:41:43.605Z,94453.59
2023-02-26T07:44:56.138Z,94456.31
2023-02-26T07:48:04.519Z,94457.53
2023-02-26T07:51:14.028Z,94458.03
2023-02-26T07:54:22.552Z,94457.34
2023-02-26T07:57:30.685Z,94457.84
2023-02-26T08:00:38.893Z,94456.34
2023-02-26T08:03:47.069Z,94473.09
2023-02-26T08:06:57.319Z,94479.66
2023-02-26T08:10:06.953Z,94487.31
2023-02-26T08:13:15.169Z,94493.16
2023-02-26T08:16:23.860Z,94496.19
2023-02-26T08:19:32.547Z,94485.69
2023-02-26T08:22:42.309Z,94489.47
2023-02-26T08:25:51.042Z,94498.00
2023-02-26T08:28:59.173Z,94502.84
2023-02-26T08:32:07.350Z,94500.00
2023-02-26T08:35:15.498Z,94509.50
2023-02-26T08:38:24.966Z,94521.47
2023-02-26T08:41:33.398Z,94519.81
2023-02-26T08:44:41.556Z,94515.84
2023-02-26T08:47:56.673Z,94523.88
2023-02-26T08:51:06.173Z,94523.44
2023-02-26T08:54:15.930Z,94523.09
2023-02-26T08:57:24.028Z,94535.97
2023-02-26T09:00:32.754Z,94532.72
2023-02-26T09:03:41.199Z,94536.34
2023-02-26T09:06:49.463Z,94536.19
2023-02-26T09:09:59.055Z,94536.41
2023-02-26T09:13:07.150Z,94546.88
2023-02-26T09:16:15.336Z,94544.94
2023-02-26T09:19:23.963Z,94543.00
2023-02-26T09:22:35.183Z,94559.38
2023-02-26T09:25:44.747Z,94551.25
2023-02-26T09:28:53.000Z,94561.75
2023-02-26T09:32:01.908Z,94573.81
2023-02-26T09:35:11.543Z,94573.91
2023-02-26T09:38:20.372Z,94573.44
2023-02-26T09:41:35.210Z,94581.94
2023-02-26T09:44:43.894Z,94590.72
2023-02-26T09:47:55.665Z,94592.84
2023-02-26T09:51:04.895Z,94592.81
2023-02-26T09:54:22.525Z,94596.22
2023-02-26T09:57:36.892Z,94600.59
2023-02-26T10:00:56.568Z,94602.91
2023-02-26T10:04:13.070Z,94609.22
2023-02-26T10:07:40.015Z,94601.84
2023-02-26T10:10:57.698Z,94599.91
2023-02-26T10:14:17.213Z,94594.41
2023-02-26T10:17:36.714Z,94597.25
2023-02-26T10:20:57.369Z,94598.16
2023-02-26T10:24:14.826Z,94591.56
2023-02-26T10:27:39.813Z,94606.78
2023-02-26T10:31:01.587Z,94595.34
2023-02-26T10:34:24.252Z,94587.38
2023-02-26T10:37:47.585Z,94587.88
2023-02-26T10:41:03.812Z,94587.81
2023-02-26T10:44:23.502Z,94599.50
2023-02-26T10:47:48.066Z,94582.66
2023-02-26T10:51:00.420Z,94589.09
2023-02-26T10:54:20.973Z,94574.44
2023-02-26T10:57:35.679Z,94563.81
2023-02-26T11:00:50.069Z,94566.66
2023-02-26T11:04:06.431Z,94560.53
2023-02-26T11:07:15.771Z,94559.69
2023-02-26T11:10:28.155Z,94565.38
2023-02-26T11:13:39.943Z,94546.53
2023-02-26T11:16:53.848Z,94551.38
2023-02-26T11:20:16.518Z,94557.38
2023-02-26T11:23:32.209Z,94568.34
2023-02-26T11:26:45.819Z,94587.34
2023-02-26T11:29:58.170Z,94591.00
2023-02-26T11:33:19.684Z,94606.59
2023-02-26T11:36:34.191Z,94601.91
2023-02-26T11:39:42.554Z,94608.41
2023-02-26T11:42:57.165Z,94609.19
2023-02-26T11:46:06.789Z,94600.44
2023-02-26T11:49:19.889Z,94604.78
2023-02-26T11:52:35.305Z,94607.72
2023-02-26T11:55:48.186Z,94597.09
2023-02-26T11:58:59.173Z,94601.63
2023-02-26T12:02:14.543Z,94600.63
2023-02-26T12:05:22.929Z,94608.34
2023-02-26T12:08:38.442Z,94602.88
2023-02-26T12:12:50.863Z,94601.47
2023-02-26T12:16:14.809Z,94599.41
2023-02-26T12:19:41.851Z,94605.34
2023-02-26T12:23:00.593Z,94606.72
2023-02-26T12:26:25.839Z,94610.94
2023-02-26T12:30:01.263Z,94607.16
2023-02-26T12:33:25.830Z,94616.13
2023-02-26T12:36:57.670Z,94607.47
2023-02-26T12:40:41.459Z,94600.44
2023-02-26T12:43:52.988Z,94612.69
2023-02-26T12:47:34.575Z,94602.03
2023-02-26T12:51:03.751Z,94595.38
2023-02-26T12:55:05.420Z,94594.22
2023-02-26T12:58:48.809Z,94581.34
2023-02-26T13:03:01.100Z,94584.44
2023-02-26T13:07:05.433Z,94591.44
2023-02-26T13:10:29.269Z,94599.56
2023-02-26T13:13:58.944Z,94598.97
2023-02-26T13:17:24.916Z,94600.09
2023-02-26T13:20:37.604Z,94601.63
2023-02-26T13:23:53.406Z,94600.06
2023-02-26T13:27:05.185Z,94608.34
2023-02-26T13:30:27.844Z,94614.38
2023-02-26T13:33:42.383Z,94608.94
2023-02-26T13:36:52.065Z,94600.63
2023-02-26T13:40:31.167Z,94596.34
2023-02-26T13:44:10.427Z,94598.13
2023-02-26T13:47:42.629Z,94599.28
2023-02-26T13:51:08.874Z,94608.50
2023-02-26T13:54:46.089Z,94596.72
2023-02-26T13:57:54.801Z,94598.00
2023-02-26T14:01:11.726Z,94600.19
2023-02-26T14:04:33.558Z,94623.91
2023-02-26T14:07:56.317Z,94626.22
2023-02-26T14:11:39.642Z,94626.38
2023-02-26T14:15:30.527Z,94629.53
2023-02-26T14:18:52.095Z,94623.03
2023-02-26T14:22:20.032Z,94603.47
2023-02-26T14:25:39.867Z,94623.59
2023-02-26T14:29:10.375Z,94625.88
2023-02-26T14:32:33.176Z,94636.06
2023-02-26T14:35:52.482Z,94635.06
2023-02-26T14:39:11.355Z,94642.28
2023-02-26T14:42:33.749Z,94649.59
2023-02-26T14:45:46.345Z,94659.13
2023-02-26T14:48:56.662Z,94655.25
2023-02-26T14:52:41.517Z,94671.84
2023-02-26T14:56:08.391Z,94690.47
2023-02-26T14:59:45.296Z,94699.47
2023-02-26T15:03:37.542Z,94694.75
2023-02-26T15:07:19.741Z,94685.53
2023-02-26T15:10:53.085Z,94689.69
2023-02-26T15:14:26.083Z,94685.31
2023-02-26T15:17:57.698Z,94682.56
2023-02-26T15:21:25.542Z,94681.44
2023-02-26T15:24:35.728Z,94685.44
2023-02-26T15:27:45.389Z,94683.59
2023-02-26T15:31:03.000Z,94683.03
2023-02-26T15:34:14.609Z,94693.47
2023-02-26T15:37:28.537Z,94704.91
2023-02-26T15:40:38.990Z,94708.06
2023-02-26T15:43:53.918Z,94708.34
2023-02-26T15:47:07.031Z,94716.75
2023-02-26T15:50:19.521Z,94707.81
2023-02-26T15:53:35.425Z,94707.00
2023-02-26T15:56:45.166Z,94712.25
2023-02-26T16:00:02.791Z,94712.59
2023-02-26T16:03:28.642Z,94720.66
2023-02-26T16:06:41.864Z,94724.75
2023-02-26T16:09:56.400Z,94728.50
2023-02-26T16:13:08.873Z,94725.50
2023-02-26T16:16:23.052Z,94736.75
2023-02-26T16:19:39.497Z,94741.97
2023-02-26T16:22:51.383Z,94743.88
2023-02-26T16:26:02.940Z,94751.47
2023-02-26T16:29:19.593Z,94756.28
2023-02-26T16:32:33.870Z,94771.13
2023-02-26T16:35:48.897Z,94774.16
2023-02-26T16:39:20.586Z,94780.47
2023-02-26T16:42:46.692Z,94778.97
2023-02-26T16:46:02.174Z,94780.59
2023-02-26T16:49:24.950Z,94787.84
2023-02-26T16:52:35.292Z,94794.03
2023-02-26T16:55:51.089Z,94790.94
2023-02-26T16:59:06.785Z,94796.53
2023-02-26T17:02:19.904Z,94798.72
2023-02-26T17:05:34.919Z,94806.50
2023-02-26T17:08:52.240Z,94814.91
2023-02-26T17:12:16.915Z,94820.66
2023-02-26T17:15:32.077Z,94817.72
2023-02-26T17:18:40.401Z,94828.72
2023-02-26T17:21:57.768Z,94830.94
2023-02-26T17:25:08.358Z,94835.16
2023-02-26T17:28:23.184Z,94837.88
2023-02-26T17:31:31.324Z,94845.84
2023-02-26T17:34:39.564Z,94843.28
2023-02-26T17:37:47.861Z,94846.94
2023-02-26T17:40:58.344Z,94858.06
2023-02-26T17:44:06.675Z,94867.97
2023-02-26T17:47:18.240Z,94868.84
2023-02-26T17:50:41.205Z,94879.28
2023-02-26T17:53:50.560Z,94885.31
2023-02-26T17:57:00.450Z,94881.44
2023-02-26T18:00:14.902Z,94896.88
2023-02-26T18:03:27.739Z,94894.34
2023-02-26T18:06:38.794Z,94907.59
2023-02-26T18:09:49.081Z,94901.00
2023-02-26T18:12:59.548Z,94907.72
2023-02-26T18:16:16.200Z,94903.81
2023-02-26T18:19:24.421Z,94918.47
2023-02-26T18:22:32.661Z,94914.69
2023-02-26T18:25:42.635Z,94917.19
2023-02-26T18:28:52.734Z,94923.34
2023-02-26T18:35:45.939Z,94924.50
2023-02-26T18:38:54.144Z,94927.72
2023-02-26T18:42:02.471Z,94923.28
2023-02-26T18:45:13.212Z,94925.03
2023-02-26T18:48:22.397Z,94922.56
2023-02-26T18:51:30.899Z,94926.72
2023-02-26T18:54:40.135Z,94916.03
2023-02-26T18:57:49.876Z,94924.44
2023-02-26T19:01:04.798Z,94927.41
2023-02-26T19:04:13.435Z,94919.09
2023-02-26T19:07:21.780Z,94910.97
2023-02-26T19:10:31.643Z,94923.28
2023-02-26T19:13:43.155Z,94919.06
2023-02-26T19:16:55.005Z,94924.44
2023-02-26T19:20:04.159Z,94931.53
2023-02-26T19:23:13.908Z,94929.44
2023-02-26T19:26:22.775Z,94946.00
2023-02-26T19:29:33.758Z,94946.72
2023-02-26T19:32:43.382Z,94957.13
2023-02-26T19:35:53.342Z,94948.16
2023-02-26T19:39:02.477Z,94958.44
2023-02-26T19:42:11.529Z,94963.03
2023-02-26T19:45:20.206Z,94948.25
2023-02-26T19:48:31.362Z,94939.59
2023-02-26T19:51:40.589Z,94942.69
2023-02-26T19:54:49.038Z,94953.34
2023-02-26T19:57:59.398Z,94958.41
2023-02-26T20:01:08.223Z,94956.53
2023-02-26T20:04:18.879Z,94964.00
2023-02-26T20:07:27.400Z,94957.97
2023-02-26T20:10:35.558Z,94973.81
2023-02-26T20:13:44.131Z,94979.03
2023-02-26T20:16:52.346Z,94983.06
2023-02-26T20:20:02.239Z,94981.13
2023-02-26T20:23:11.726Z,94980.34
2023-02-26T20:26:20.073Z,94989.66
2023-02-26T20:29:28.707Z,95001.63
2023-02-26T20:32:37.267Z,94991.88
2023-02-26T20:35:47.389Z,95005.94
2023-02-26T20:38:55.995Z,95007.25
2023-02-26T20:42:05.232Z,95013.13
2023-02-26T20:45:13.905Z,95010.94
2023-02-26T20:48:22.600Z,95015.47
2023-02-26T20:51:32.793Z,95020.50
2023-02-26T20:54:41.884Z,95028.00
2023-02-26T20:57:50.756Z,95019.31
2023-02-26T21:00:59.517Z,95014.47
2023-02-26T21:04:10.430Z,95017.91
2023-02-26T21:07:22.857Z,95021.28
2023-02-26T21:10:32.605Z,95025.81
2023-02-26T21:13:41.307Z,95024.03
2023-02-26T21:16:49.648Z,95018.94
2023-02-26T21:19:58.367Z,95024.56
2023-02-26T21:23:08.277Z,95025.25
2023-02-26T21:26:16.758Z,95027.44
2023-02-26T21:29:25.312Z,95045.03
2023-02-26T21:32:34.232Z,95038.63
2023-02-26T21:35:42.845Z,95040.53
2023-02-26T21:38:52.446Z,95047.50
2023-02-26T21:42:06.133Z,95042.69
2023-02-26T21:45:14.611Z,95033.94
2023-02-26T21:48:22.865Z,95041.75
2023-02-26T21:51:31.293Z,95044.34
2023-02-26T21:54:41.432Z,95046.06
2023-02-26T21:57:50.036Z,95053.56
2023-02-26T22:00:59.656Z,95057.41
2023-02-26T22:04:08.443Z,95060.34
2023-02-26T22:07:16.749Z,95052.44
2023-02-26T22:10:26.616Z,95064.56
2023-02-26T22:13:35.231Z,95069.16
2023-02-26T22:16:43.783Z,95063.03
2023-02-26T22:19:52.117Z,95075.13
2023-02-26T22:23:00.751Z,95076.00
2023-02-26T22:26:17.927Z,95073.69
2023-02-26T22:29:26.280Z,95070.75
2023-02-26T22:32:34.783Z,95078.34
2023-02-26T22:35:44.253Z,95072.09
2023-02-26T22:38:52.540Z,95070.31
2023-02-26T22:42:02.120Z,95065.56
2023-02-26T22:45:12.434Z,95068.19
2023-02-26T22:48:21.025Z,95064.16
2023-02-26T22:51:29.936Z,95058.81
2023-02-26T22:54:39.030Z,95063.59
2023-02-26T22:57:48.621Z,95066.31
2023-02-26T23:01:01.802Z,95076.25
2023-02-26T23:04:10.668Z,95065.94
2023-02-26T23:07:19.453Z,95072.59
2023-02-26T23:10:27.672Z,95074.72
2023-02-26T23:13:38.097Z,95077.69
2023-02-26T23:16:46.463Z,95080.53
2023-02-26T23:19:55.151Z,95091.66
2023-02-26T23:23:03.313Z,95084.06
2023-02-26T23:26:11.841Z,95087.41
2023-02-26T23:29:21.547Z,95090.94
2023-02-26T23:32:29.683Z,95093.56
2023-02-26T23:35:38.246Z,95092.00
2023-02-26T23:38:46.470Z,95094.06
2023-02-26T23:41:55.177Z,95092.13
2023-02-26T23:45:05.370Z,95094.63
2023-02-26T23:48:13.796Z,95096.53
2023-02-26T23:51:22.045Z,95102.81
2023-02-26T23:54:30.517Z,95099.56
2023-02-26T23:57:39.158Z,95097.13
